sensor_id;sensor_type;location;lat;lon;timestamp;P1;durP1;ratioP1;P2;durP2;ratioP2
9918;SDS011;4998;51.024;13.828;2023-05-15T00:00:44;2.40;;;2.30;;
9918;SDS011;4998;51.024;13.828;2023-05-15T00:03:11;2.67;;;2.50;;
9918;SDS011;4998;51.024;13.828;2023-05-15T00:05:38;3.87;;;2.50;;
9918;SDS011;4998;51.024;13.828;2023-05-15T00:08:06;4.37;;;2.30;;
9918;SDS011;4998;51.024;13.828;2023-05-15T00:10:33;3.37;;;3.07;;
9918;SDS011;4998;51.024;13.828;2023-05-15T00:13:00;3.23;;;2.93;;
9918;SDS011;4998;51.024;13.828;2023-05-15T00:15:27;2.87;;;2.67;;
9918;SDS011;4998;51.024;13.828;2023-05-15T00:17:54;2.90;;;2.70;;
9918;SDS011;4998;51.024;13.828;2023-05-15T00:20:21;4.83;;;2.30;;
9918;SDS011;4998;51.024;13.828;2023-05-15T00:22:48;2.67;;;2.47;;
9918;SDS011;4998;51.024;13.828;2023-05-15T00:25:17;5.20;;;2.57;;
9918;SDS011;4998;51.024;13.828;2023-05-15T00:27:44;2.20;;;2.10;;
9918;SDS011;4998;51.024;13.828;2023-05-15T00:30:12;2.63;;;2.43;;
9918;SDS011;4998;51.024;13.828;2023-05-15T00:32:40;2.67;;;2.47;;
9918;SDS011;4998;51.024;13.828;2023-05-15T00:35:07;3.10;;;2.80;;
9918;SDS011;4998;51.024;13.828;2023-05-15T00:37:34;2.43;;;2.33;;
9918;SDS011;4998;51.024;13.828;2023-05-15T00:40:01;3.67;;;2.70;;
9918;SDS011;4998;51.024;13.828;2023-05-15T00:42:30;3.00;;;2.37;;
9918;SDS011;4998;51.024;13.828;2023-05-15T00:44:57;3.60;;;2.77;;
9918;SDS011;4998;51.024;13.828;2023-05-15T00:47:27;3.27;;;2.97;;
9918;SDS011;4998;51.024;13.828;2023-05-15T00:49:55;3.03;;;2.73;;
9918;SDS011;4998;51.024;13.828;2023-05-15T00:52:23;2.97;;;2.77;;
9918;SDS011;4998;51.024;13.828;2023-05-15T00:54:50;10.40;;;3.10;;
9918;SDS011;4998;51.024;13.828;2023-05-15T00:57:17;3.17;;;2.90;;
9918;SDS011;4998;51.024;13.828;2023-05-15T00:59:46;2.63;;;2.43;;
9918;SDS011;4998;51.024;13.828;2023-05-15T01:02:17;3.10;;;2.90;;
9918;SDS011;4998;51.024;13.828;2023-05-15T01:04:45;2.63;;;2.40;;
9918;SDS011;4998;51.024;13.828;2023-05-15T01:07:12;3.10;;;2.67;;
9918;SDS011;4998;51.024;13.828;2023-05-15T01:09:39;3.00;;;2.80;;
9918;SDS011;4998;51.024;13.828;2023-05-15T01:12:08;3.17;;;2.60;;
9918;SDS011;4998;51.024;13.828;2023-05-15T01:14:36;2.73;;;2.53;;
9918;SDS011;4998;51.024;13.828;2023-05-15T01:17:05;3.60;;;2.73;;
9918;SDS011;4998;51.024;13.828;2023-05-15T01:19:32;3.43;;;2.80;;
9918;SDS011;4998;51.024;13.828;2023-05-15T01:22:07;2.83;;;2.57;;
9918;SDS011;4998;51.024;13.828;2023-05-15T01:24:57;2.60;;;2.40;;
9918;SDS011;4998;51.024;13.828;2023-05-15T01:27:45;2.50;;;2.40;;
9918;SDS011;4998;51.024;13.828;2023-05-15T01:30:17;3.27;;;2.70;;
9918;SDS011;4998;51.024;13.828;2023-05-15T01:32:52;2.57;;;2.40;;
9918;SDS011;4998;51.024;13.828;2023-05-15T01:35:25;3.00;;;2.80;;
9918;SDS011;4998;51.024;13.828;2023-05-15T01:37:59;2.90;;;2.70;;
9918;SDS011;4998;51.024;13.828;2023-05-15T01:40:31;4.67;;;2.40;;
9918;SDS011;4998;51.024;13.828;2023-05-15T01:43:00;3.10;;;2.83;;
9918;SDS011;4998;51.024;13.828;2023-05-15T01:45:33;2.77;;;2.57;;
9918;SDS011;4998;51.024;13.828;2023-05-15T01:48:01;2.30;;;2.20;;
9918;SDS011;4998;51.024;13.828;2023-05-15T01:50:33;2.43;;;2.23;;
9918;SDS011;4998;51.024;13.828;2023-05-15T01:53:01;2.53;;;2.33;;
9918;SDS011;4998;51.024;13.828;2023-05-15T01:55:28;2.73;;;2.53;;
9918;SDS011;4998;51.024;13.828;2023-05-15T01:57:55;2.40;;;2.20;;
9918;SDS011;4998;51.024;13.828;2023-05-15T02:00:27;2.70;;;2.50;;
9918;SDS011;4998;51.024;13.828;2023-05-15T02:02:54;2.50;;;2.40;;
9918;SDS011;4998;51.024;13.828;2023-05-15T02:05:22;2.60;;;2.20;;
9918;SDS011;4998;51.024;13.828;2023-05-15T02:07:50;3.43;;;3.00;;
9918;SDS011;4998;51.024;13.828;2023-05-15T02:10:18;2.67;;;2.53;;
9918;SDS011;4998;51.024;13.828;2023-05-15T02:12:46;2.83;;;2.63;;
9918;SDS011;4998;51.024;13.828;2023-05-15T02:15:17;2.80;;;2.60;;
9918;SDS011;4998;51.024;13.828;2023-05-15T02:17:44;2.47;;;2.27;;
9918;SDS011;4998;51.024;13.828;2023-05-15T02:20:11;2.70;;;2.50;;
9918;SDS011;4998;51.024;13.828;2023-05-15T02:22:38;2.83;;;2.63;;
9918;SDS011;4998;51.024;13.828;2023-05-15T02:25:05;2.70;;;2.50;;
9918;SDS011;4998;51.024;13.828;2023-05-15T02:27:34;3.10;;;2.80;;
9918;SDS011;4998;51.024;13.828;2023-05-15T02:30:10;2.77;;;2.57;;
9918;SDS011;4998;51.024;13.828;2023-05-15T02:32:58;3.20;;;2.93;;
9918;SDS011;4998;51.024;13.828;2023-05-15T02:35:34;2.67;;;2.47;;
9918;SDS011;4998;51.024;13.828;2023-05-15T02:38:08;3.50;;;2.50;;
9918;SDS011;4998;51.024;13.828;2023-05-15T02:40:38;2.90;;;2.70;;
9918;SDS011;4998;51.024;13.828;2023-05-15T02:43:06;2.83;;;2.63;;
9918;SDS011;4998;51.024;13.828;2023-05-15T02:45:36;2.90;;;2.70;;
9918;SDS011;4998;51.024;13.828;2023-05-15T02:48:06;2.67;;;2.47;;
9918;SDS011;4998;51.024;13.828;2023-05-15T02:50:34;2.63;;;2.43;;
9918;SDS011;4998;51.024;13.828;2023-05-15T02:53:01;2.47;;;2.27;;
9918;SDS011;4998;51.024;13.828;2023-05-15T02:55:28;2.80;;;2.60;;
9918;SDS011;4998;51.024;13.828;2023-05-15T02:57:56;3.00;;;2.80;;
9918;SDS011;4998;51.024;13.828;2023-05-15T03:00:23;2.83;;;2.63;;
9918;SDS011;4998;51.024;13.828;2023-05-15T03:02:51;3.03;;;2.83;;
9918;SDS011;4998;51.024;13.828;2023-05-15T03:05:18;3.00;;;2.80;;
9918;SDS011;4998;51.024;13.828;2023-05-15T03:07:46;3.10;;;2.80;;
9918;SDS011;4998;51.024;13.828;2023-05-15T03:10:13;2.87;;;2.67;;
9918;SDS011;4998;51.024;13.828;2023-05-15T03:12:40;2.97;;;2.77;;
9918;SDS011;4998;51.024;13.828;2023-05-15T03:15:07;3.07;;;2.77;;
9918;SDS011;4998;51.024;13.828;2023-05-15T03:17:34;2.60;;;2.40;;
9918;SDS011;4998;51.024;13.828;2023-05-15T03:20:03;3.20;;;3.00;;
9918;SDS011;4998;51.024;13.828;2023-05-15T03:22:31;2.97;;;2.77;;
9918;SDS011;4998;51.024;13.828;2023-05-15T03:24:58;2.87;;;2.67;;
9918;SDS011;4998;51.024;13.828;2023-05-15T03:27:26;2.63;;;2.43;;
9918;SDS011;4998;51.024;13.828;2023-05-15T03:29:53;2.90;;;2.37;;
9918;SDS011;4998;51.024;13.828;2023-05-15T03:32:20;2.70;;;2.50;;
9918;SDS011;4998;51.024;13.828;2023-05-15T03:34:47;2.90;;;2.70;;
9918;SDS011;4998;51.024;13.828;2023-05-15T03:37:15;2.83;;;2.70;;
9918;SDS011;4998;51.024;13.828;2023-05-15T03:39:42;2.60;;;2.47;;
9918;SDS011;4998;51.024;13.828;2023-05-15T03:42:09;2.63;;;2.47;;
9918;SDS011;4998;51.024;13.828;2023-05-15T03:44:36;2.93;;;2.73;;
9918;SDS011;4998;51.024;13.828;2023-05-15T03:47:04;3.20;;;2.90;;
9918;SDS011;4998;51.024;13.828;2023-05-15T03:49:31;2.40;;;2.30;;
9918;SDS011;4998;51.024;13.828;2023-05-15T03:51:58;2.97;;;2.47;;
9918;SDS011;4998;51.024;13.828;2023-05-15T03:54:26;2.80;;;2.60;;
9918;SDS011;4998;51.024;13.828;2023-05-15T03:56:53;2.73;;;2.53;;
9918;SDS011;4998;51.024;13.828;2023-05-15T03:59:20;2.67;;;2.47;;
9918;SDS011;4998;51.024;13.828;2023-05-15T04:01:47;3.37;;;2.53;;
9918;SDS011;4998;51.024;13.828;2023-05-15T04:04:15;2.60;;;2.50;;
9918;SDS011;4998;51.024;13.828;2023-05-15T04:06:42;2.90;;;2.70;;
9918;SDS011;4998;51.024;13.828;2023-05-15T04:09:09;2.70;;;2.50;;
9918;SDS011;4998;51.024;13.828;2023-05-15T04:11:37;3.10;;;2.53;;
9918;SDS011;4998;51.024;13.828;2023-05-15T04:14:04;2.37;;;2.27;;
9918;SDS011;4998;51.024;13.828;2023-05-15T04:16:31;2.97;;;2.77;;
9918;SDS011;4998;51.024;13.828;2023-05-15T04:18:58;3.73;;;2.63;;
9918;SDS011;4998;51.024;13.828;2023-05-15T04:21:25;2.60;;;2.40;;
9918;SDS011;4998;51.024;13.828;2023-05-15T04:23:52;2.83;;;2.60;;
9918;SDS011;4998;51.024;13.828;2023-05-15T04:26:19;3.10;;;2.80;;
9918;SDS011;4998;51.024;13.828;2023-05-15T04:28:47;3.10;;;2.80;;
9918;SDS011;4998;51.024;13.828;2023-05-15T04:31:14;3.13;;;2.93;;
9918;SDS011;4998;51.024;13.828;2023-05-15T04:33:41;2.90;;;2.70;;
9918;SDS011;4998;51.024;13.828;2023-05-15T04:36:08;4.40;;;3.10;;
9918;SDS011;4998;51.024;13.828;2023-05-15T04:38:35;3.40;;;3.10;;
9918;SDS011;4998;51.024;13.828;2023-05-15T04:41:02;2.80;;;2.50;;
9918;SDS011;4998;51.024;13.828;2023-05-15T04:43:29;3.00;;;2.80;;
9918;SDS011;4998;51.024;13.828;2023-05-15T04:45:58;2.80;;;2.60;;
9918;SDS011;4998;51.024;13.828;2023-05-15T04:48:25;3.00;;;2.60;;
9918;SDS011;4998;51.024;13.828;2023-05-15T04:50:52;3.10;;;2.90;;
9918;SDS011;4998;51.024;13.828;2023-05-15T04:53:19;2.80;;;2.60;;
9918;SDS011;4998;51.024;13.828;2023-05-15T04:55:46;3.73;;;2.90;;
9918;SDS011;4998;51.024;13.828;2023-05-15T04:58:15;2.83;;;2.63;;
9918;SDS011;4998;51.024;13.828;2023-05-15T05:00:42;4.60;;;3.03;;
9918;SDS011;4998;51.024;13.828;2023-05-15T05:03:10;3.10;;;2.80;;
9918;SDS011;4998;51.024;13.828;2023-05-15T05:05:37;3.03;;;2.83;;
9918;SDS011;4998;51.024;13.828;2023-05-15T05:08:04;3.50;;;3.20;;
9918;SDS011;4998;51.024;13.828;2023-05-15T05:10:31;3.00;;;2.80;;
9918;SDS011;4998;51.024;13.828;2023-05-15T05:12:59;2.83;;;2.63;;
9918;SDS011;4998;51.024;13.828;2023-05-15T05:15:25;3.20;;;3.00;;
9918;SDS011;4998;51.024;13.828;2023-05-15T05:17:52;2.90;;;2.70;;
9918;SDS011;4998;51.024;13.828;2023-05-15T05:20:21;3.30;;;3.03;;
9918;SDS011;4998;51.024;13.828;2023-05-15T05:22:48;3.10;;;2.90;;
9918;SDS011;4998;51.024;13.828;2023-05-15T05:25:15;3.10;;;2.90;;
9918;SDS011;4998;51.024;13.828;2023-05-15T05:27:42;3.40;;;3.10;;
9918;SDS011;4998;51.024;13.828;2023-05-15T05:30:09;4.67;;;3.20;;
9918;SDS011;4998;51.024;13.828;2023-05-15T05:32:37;3.30;;;3.00;;
9918;SDS011;4998;51.024;13.828;2023-05-15T05:35:04;3.17;;;2.97;;
9918;SDS011;4998;51.024;13.828;2023-05-15T05:37:32;3.43;;;3.13;;
9918;SDS011;4998;51.024;13.828;2023-05-15T05:40:00;3.23;;;2.93;;
9918;SDS011;4998;51.024;13.828;2023-05-15T05:42:26;3.50;;;3.20;;
9918;SDS011;4998;51.024;13.828;2023-05-15T05:44:54;4.63;;;3.20;;
9918;SDS011;4998;51.024;13.828;2023-05-15T05:47:21;3.90;;;3.43;;
9918;SDS011;4998;51.024;13.828;2023-05-15T05:49:48;3.97;;;3.67;;
9918;SDS011;4998;51.024;13.828;2023-05-15T05:52:15;4.00;;;3.60;;
9918;SDS011;4998;51.024;13.828;2023-05-15T05:54:43;3.47;;;3.17;;
9918;SDS011;4998;51.024;13.828;2023-05-15T05:57:12;3.93;;;3.63;;
9918;SDS011;4998;51.024;13.828;2023-05-15T05:59:39;4.00;;;3.60;;
9918;SDS011;4998;51.024;13.828;2023-05-15T06:02:06;3.47;;;3.17;;
9918;SDS011;4998;51.024;13.828;2023-05-15T06:04:34;3.33;;;3.13;;
9918;SDS011;4998;51.024;13.828;2023-05-15T06:07:01;3.30;;;3.10;;
9918;SDS011;4998;51.024;13.828;2023-05-15T06:09:28;3.73;;;3.40;;
9918;SDS011;4998;51.024;13.828;2023-05-15T06:11:56;3.40;;;3.20;;
9918;SDS011;4998;51.024;13.828;2023-05-15T06:14:24;3.80;;;3.50;;
9918;SDS011;4998;51.024;13.828;2023-05-15T06:16:51;3.67;;;3.37;;
9918;SDS011;4998;51.024;13.828;2023-05-15T06:19:18;3.90;;;3.53;;
9918;SDS011;4998;51.024;13.828;2023-05-15T06:21:46;3.73;;;3.53;;
9918;SDS011;4998;51.024;13.828;2023-05-15T06:24:13;4.13;;;3.70;;
9918;SDS011;4998;51.024;13.828;2023-05-15T06:26:40;4.17;;;3.87;;
9918;SDS011;4998;51.024;13.828;2023-05-15T06:29:09;3.97;;;3.60;;
9918;SDS011;4998;51.024;13.828;2023-05-15T06:31:36;3.40;;;3.20;;
9918;SDS011;4998;51.024;13.828;2023-05-15T06:34:03;4.20;;;3.80;;
9918;SDS011;4998;51.024;13.828;2023-05-15T06:36:30;3.80;;;3.50;;
9918;SDS011;4998;51.024;13.828;2023-05-15T06:38:58;4.03;;;3.73;;
9918;SDS011;4998;51.024;13.828;2023-05-15T06:41:25;4.23;;;3.93;;
9918;SDS011;4998;51.024;13.828;2023-05-15T06:43:52;3.90;;;3.60;;
9918;SDS011;4998;51.024;13.828;2023-05-15T06:46:20;3.70;;;3.40;;
9918;SDS011;4998;51.024;13.828;2023-05-15T06:48:47;6.83;;;3.57;;
9918;SDS011;4998;51.024;13.828;2023-05-15T06:51:14;4.27;;;3.87;;
9918;SDS011;4998;51.024;13.828;2023-05-15T06:53:41;4.00;;;3.60;;
9918;SDS011;4998;51.024;13.828;2023-05-15T06:56:08;3.93;;;3.67;;
9918;SDS011;4998;51.024;13.828;2023-05-15T06:58:35;4.60;;;4.20;;
9918;SDS011;4998;51.024;13.828;2023-05-15T07:01:02;4.20;;;3.80;;
9918;SDS011;4998;51.024;13.828;2023-05-15T07:03:32;4.30;;;3.90;;
9918;SDS011;4998;51.024;13.828;2023-05-15T07:05:59;4.20;;;3.60;;
9918;SDS011;4998;51.024;13.828;2023-05-15T07:08:26;4.50;;;4.20;;
9918;SDS011;4998;51.024;13.828;2023-05-15T07:10:53;4.50;;;4.20;;
9918;SDS011;4998;51.024;13.828;2023-05-15T07:13:20;3.50;;;3.23;;
9918;SDS011;4998;51.024;13.828;2023-05-15T07:15:47;4.57;;;4.17;;
9918;SDS011;4998;51.024;13.828;2023-05-15T07:18:14;4.80;;;4.40;;
9918;SDS011;4998;51.024;13.828;2023-05-15T07:20:42;4.80;;;4.40;;
9918;SDS011;4998;51.024;13.828;2023-05-15T07:23:09;4.40;;;4.10;;
9918;SDS011;4998;51.024;13.828;2023-05-15T07:25:36;4.47;;;4.07;;
9918;SDS011;4998;51.024;13.828;2023-05-15T07:28:03;4.80;;;4.40;;
9918;SDS011;4998;51.024;13.828;2023-05-15T07:30:30;5.03;;;4.53;;
9918;SDS011;4998;51.024;13.828;2023-05-15T07:32:57;4.30;;;4.00;;
9918;SDS011;4998;51.024;13.828;2023-05-15T07:35:24;4.73;;;4.33;;
9918;SDS011;4998;51.024;13.828;2023-05-15T07:37:52;4.07;;;3.77;;
9918;SDS011;4998;51.024;13.828;2023-05-15T07:40:19;4.70;;;4.30;;
9918;SDS011;4998;51.024;13.828;2023-05-15T07:42:47;4.63;;;4.20;;
9918;SDS011;4998;51.024;13.828;2023-05-15T07:45:14;4.93;;;4.53;;
9918;SDS011;4998;51.024;13.828;2023-05-15T07:47:43;5.03;;;4.60;;
9918;SDS011;4998;51.024;13.828;2023-05-15T07:50:11;4.30;;;3.97;;
9918;SDS011;4998;51.024;13.828;2023-05-15T07:52:38;4.87;;;4.13;;
9918;SDS011;4998;51.024;13.828;2023-05-15T07:55:07;5.17;;;4.37;;
9918;SDS011;4998;51.024;13.828;2023-05-15T07:57:34;5.10;;;4.57;;
9918;SDS011;4998;51.024;13.828;2023-05-15T08:00:02;4.53;;;4.13;;
9918;SDS011;4998;51.024;13.828;2023-05-15T08:02:34;4.67;;;4.27;;
9918;SDS011;4998;51.024;13.828;2023-05-15T08:05:01;4.97;;;4.50;;
9918;SDS011;4998;51.024;13.828;2023-05-15T08:07:29;5.30;;;4.40;;
9918;SDS011;4998;51.024;13.828;2023-05-15T08:09:57;4.67;;;4.27;;
9918;SDS011;4998;51.024;13.828;2023-05-15T08:12:26;4.90;;;4.40;;
9918;SDS011;4998;51.024;13.828;2023-05-15T08:14:53;4.57;;;4.17;;
9918;SDS011;4998;51.024;13.828;2023-05-15T08:17:21;5.10;;;4.40;;
9918;SDS011;4998;51.024;13.828;2023-05-15T08:19:49;4.80;;;4.30;;
9918;SDS011;4998;51.024;13.828;2023-05-15T08:22:16;5.20;;;4.37;;
9918;SDS011;4998;51.024;13.828;2023-05-15T08:24:44;4.57;;;4.17;;
9918;SDS011;4998;51.024;13.828;2023-05-15T08:27:11;4.07;;;3.67;;
9918;SDS011;4998;51.024;13.828;2023-05-15T08:29:39;4.60;;;4.20;;
9918;SDS011;4998;51.024;13.828;2023-05-15T08:32:07;5.10;;;4.60;;
9918;SDS011;4998;51.024;13.828;2023-05-15T08:34:34;5.53;;;4.40;;
9918;SDS011;4998;51.024;13.828;2023-05-15T08:37:02;5.60;;;4.37;;
9918;SDS011;4998;51.024;13.828;2023-05-15T08:39:30;6.30;;;4.37;;
9918;SDS011;4998;51.024;13.828;2023-05-15T08:41:59;4.40;;;4.00;;
9918;SDS011;4998;51.024;13.828;2023-05-15T08:44:33;4.40;;;4.00;;
9918;SDS011;4998;51.024;13.828;2023-05-15T08:47:03;4.67;;;4.27;;
9918;SDS011;4998;51.024;13.828;2023-05-15T08:49:32;5.10;;;4.70;;
9918;SDS011;4998;51.024;13.828;2023-05-15T08:52:05;4.83;;;4.13;;
9918;SDS011;4998;51.024;13.828;2023-05-15T08:54:33;5.03;;;4.37;;
9918;SDS011;4998;51.024;13.828;2023-05-15T08:57:01;5.47;;;4.97;;
9918;SDS011;4998;51.024;13.828;2023-05-15T08:59:28;4.13;;;3.83;;
9918;SDS011;4998;51.024;13.828;2023-05-15T09:01:55;4.50;;;4.10;;
9918;SDS011;4998;51.024;13.828;2023-05-15T09:04:24;7.07;;;4.77;;
9918;SDS011;4998;51.024;13.828;2023-05-15T09:06:51;5.33;;;4.20;;
9918;SDS011;4998;51.024;13.828;2023-05-15T09:09:19;5.20;;;4.80;;
9918;SDS011;4998;51.024;13.828;2023-05-15T09:11:46;5.13;;;4.63;;
9918;SDS011;4998;51.024;13.828;2023-05-15T09:14:14;5.13;;;4.73;;
9918;SDS011;4998;51.024;13.828;2023-05-15T09:16:41;4.93;;;4.53;;
9918;SDS011;4998;51.024;13.828;2023-05-15T09:19:10;5.37;;;4.87;;
9918;SDS011;4998;51.024;13.828;2023-05-15T09:21:40;5.87;;;5.37;;
9918;SDS011;4998;51.024;13.828;2023-05-15T09:24:17;5.60;;;5.10;;
9918;SDS011;4998;51.024;13.828;2023-05-15T09:26:47;9.60;;;4.80;;
9918;SDS011;4998;51.024;13.828;2023-05-15T09:29:27;5.03;;;4.60;;
9918;SDS011;4998;51.024;13.828;2023-05-15T09:31:56;5.63;;;4.50;;
9918;SDS011;4998;51.024;13.828;2023-05-15T09:34:30;4.83;;;4.37;;
9918;SDS011;4998;51.024;13.828;2023-05-15T09:37:00;12.00;;;5.03;;
9918;SDS011;4998;51.024;13.828;2023-05-15T09:39:28;5.83;;;5.23;;
9918;SDS011;4998;51.024;13.828;2023-05-15T09:42:04;5.90;;;5.30;;
9918;SDS011;4998;51.024;13.828;2023-05-15T09:44:32;4.80;;;4.40;;
9918;SDS011;4998;51.024;13.828;2023-05-15T09:47:01;5.60;;;5.10;;
9918;SDS011;4998;51.024;13.828;2023-05-15T09:49:30;5.27;;;4.77;;
9918;SDS011;4998;51.024;13.828;2023-05-15T09:51:57;6.03;;;5.53;;
9918;SDS011;4998;51.024;13.828;2023-05-15T09:54:26;6.13;;;4.87;;
9918;SDS011;4998;51.024;13.828;2023-05-15T09:56:55;5.50;;;5.10;;
9918;SDS011;4998;51.024;13.828;2023-05-15T09:59:22;8.40;;;5.40;;
9918;SDS011;4998;51.024;13.828;2023-05-15T10:01:49;6.00;;;5.40;;
9918;SDS011;4998;51.024;13.828;2023-05-15T10:04:17;6.17;;;5.53;;
9918;SDS011;4998;51.024;13.828;2023-05-15T10:06:44;6.07;;;5.20;;
9918;SDS011;4998;51.024;13.828;2023-05-15T10:09:13;5.73;;;5.20;;
9918;SDS011;4998;51.024;13.828;2023-05-15T10:11:42;6.93;;;5.50;;
9918;SDS011;4998;51.024;13.828;2023-05-15T10:14:10;6.00;;;5.40;;
9918;SDS011;4998;51.024;13.828;2023-05-15T10:16:39;5.17;;;4.77;;
9918;SDS011;4998;51.024;13.828;2023-05-15T10:19:07;4.30;;;4.00;;
9918;SDS011;4998;51.024;13.828;2023-05-15T10:21:36;6.03;;;5.53;;
9918;SDS011;4998;51.024;13.828;2023-05-15T10:24:05;4.80;;;4.40;;
9918;SDS011;4998;51.024;13.828;2023-05-15T10:26:35;5.60;;;4.60;;
9918;SDS011;4998;51.024;13.828;2023-05-15T10:29:04;4.80;;;4.40;;
9918;SDS011;4998;51.024;13.828;2023-05-15T10:31:32;5.50;;;5.00;;
9918;SDS011;4998;51.024;13.828;2023-05-15T10:34:00;5.07;;;4.63;;
9918;SDS011;4998;51.024;13.828;2023-05-15T10:36:28;4.37;;;3.97;;
9918;SDS011;4998;51.024;13.828;2023-05-15T10:38:57;5.27;;;4.27;;
9918;SDS011;4998;51.024;13.828;2023-05-15T10:41:26;4.63;;;4.23;;
9918;SDS011;4998;51.024;13.828;2023-05-15T10:43:56;5.27;;;4.77;;
9918;SDS011;4998;51.024;13.828;2023-05-15T10:46:24;5.60;;;5.10;;
9918;SDS011;4998;51.024;13.828;2023-05-15T10:48:52;4.83;;;4.33;;
9918;SDS011;4998;51.024;13.828;2023-05-15T10:51:22;5.33;;;4.63;;
9918;SDS011;4998;51.024;13.828;2023-05-15T10:53:50;5.03;;;4.60;;
9918;SDS011;4998;51.024;13.828;2023-05-15T10:56:18;4.93;;;4.53;;
9918;SDS011;4998;51.024;13.828;2023-05-15T10:58:46;5.30;;;4.80;;
9918;SDS011;4998;51.024;13.828;2023-05-15T11:01:27;4.63;;;4.23;;
9918;SDS011;4998;51.024;13.828;2023-05-15T11:04:08;5.67;;;4.20;;
9918;SDS011;4998;51.024;13.828;2023-05-15T11:06:36;4.63;;;4.23;;
9918;SDS011;4998;51.024;13.828;2023-05-15T11:12:03;4.37;;;4.03;;
9918;SDS011;4998;51.024;13.828;2023-05-15T11:14:34;4.33;;;3.93;;
9918;SDS011;4998;51.024;13.828;2023-05-15T11:17:04;4.57;;;4.00;;
9918;SDS011;4998;51.024;13.828;2023-05-15T11:19:34;4.20;;;3.90;;
9918;SDS011;4998;51.024;13.828;2023-05-15T11:22:14;4.03;;;3.73;;
9918;SDS011;4998;51.024;13.828;2023-05-15T11:24:52;3.70;;;3.30;;
9918;SDS011;4998;51.024;13.828;2023-05-15T11:27:21;4.43;;;4.03;;
9918;SDS011;4998;51.024;13.828;2023-05-15T11:32:54;4.53;;;4.13;;
9918;SDS011;4998;51.024;13.828;2023-05-15T11:35:23;4.43;;;4.03;;
9918;SDS011;4998;51.024;13.828;2023-05-15T11:37:52;4.20;;;3.90;;
9918;SDS011;4998;51.024;13.828;2023-05-15T11:40:22;4.30;;;3.87;;
9918;SDS011;4998;51.024;13.828;2023-05-15T11:42:59;4.70;;;4.30;;
9918;SDS011;4998;51.024;13.828;2023-05-15T11:45:32;6.57;;;3.67;;
9918;SDS011;4998;51.024;13.828;2023-05-15T11:48:02;3.60;;;3.40;;
9918;SDS011;4998;51.024;13.828;2023-05-15T11:50:30;4.73;;;4.23;;
9918;SDS011;4998;51.024;13.828;2023-05-15T11:53:00;4.00;;;3.70;;
9918;SDS011;4998;51.024;13.828;2023-05-15T11:55:30;4.77;;;4.27;;
9918;SDS011;4998;51.024;13.828;2023-05-15T11:57:58;5.60;;;3.87;;
9918;SDS011;4998;51.024;13.828;2023-05-15T12:00:25;6.70;;;3.80;;
9918;SDS011;4998;51.024;13.828;2023-05-15T12:02:52;4.23;;;3.83;;
9918;SDS011;4998;51.024;13.828;2023-05-15T12:05:21;4.70;;;4.07;;
9918;SDS011;4998;51.024;13.828;2023-05-15T12:07:48;5.80;;;4.20;;
9918;SDS011;4998;51.024;13.828;2023-05-15T12:10:16;4.97;;;3.90;;
9918;SDS011;4998;51.024;13.828;2023-05-15T12:12:44;4.10;;;3.70;;
9918;SDS011;4998;51.024;13.828;2023-05-15T12:15:12;4.80;;;4.40;;
9918;SDS011;4998;51.024;13.828;2023-05-15T12:17:41;4.50;;;4.10;;
9918;SDS011;4998;51.024;13.828;2023-05-15T12:20:10;5.40;;;4.67;;
9918;SDS011;4998;51.024;13.828;2023-05-15T12:22:41;5.40;;;4.60;;
9918;SDS011;4998;51.024;13.828;2023-05-15T12:25:09;4.87;;;4.47;;
9918;SDS011;4998;51.024;13.828;2023-05-15T12:27:37;5.73;;;5.23;;
9918;SDS011;4998;51.024;13.828;2023-05-15T12:30:05;5.53;;;5.03;;
9918;SDS011;4998;51.024;13.828;2023-05-15T12:32:34;5.10;;;4.70;;
9918;SDS011;4998;51.024;13.828;2023-05-15T12:35:02;5.20;;;4.70;;
9918;SDS011;4998;51.024;13.828;2023-05-15T12:37:30;5.57;;;4.97;;
9918;SDS011;4998;51.024;13.828;2023-05-15T12:40:00;5.33;;;4.37;;
9918;SDS011;4998;51.024;13.828;2023-05-15T12:42:36;5.00;;;4.60;;
9918;SDS011;4998;51.024;13.828;2023-05-15T12:45:10;5.07;;;4.57;;
9918;SDS011;4998;51.024;13.828;2023-05-15T12:47:39;5.50;;;5.00;;
9918;SDS011;4998;51.024;13.828;2023-05-15T12:50:10;4.83;;;4.33;;
9918;SDS011;4998;51.024;13.828;2023-05-15T12:52:39;5.93;;;4.50;;
9918;SDS011;4998;51.024;13.828;2023-05-15T12:55:08;5.00;;;4.60;;
9918;SDS011;4998;51.024;13.828;2023-05-15T12:57:41;4.73;;;4.33;;
9918;SDS011;4998;51.024;13.828;2023-05-15T13:00:09;4.87;;;4.37;;
9918;SDS011;4998;51.024;13.828;2023-05-15T13:02:38;6.17;;;4.53;;
9918;SDS011;4998;51.024;13.828;2023-05-15T13:05:07;5.70;;;4.47;;
9918;SDS011;4998;51.024;13.828;2023-05-15T13:07:35;8.50;;;4.80;;
9918;SDS011;4998;51.024;13.828;2023-05-15T13:10:03;4.77;;;4.40;;
9918;SDS011;4998;51.024;13.828;2023-05-15T13:12:36;4.97;;;4.57;;
9918;SDS011;4998;51.024;13.828;2023-05-15T13:15:05;4.60;;;4.20;;
9918;SDS011;4998;51.024;13.828;2023-05-15T13:17:32;4.70;;;4.30;;
9918;SDS011;4998;51.024;13.828;2023-05-15T13:20:00;4.77;;;4.37;;
9918;SDS011;4998;51.024;13.828;2023-05-15T13:22:29;4.83;;;4.00;;
9918;SDS011;4998;51.024;13.828;2023-05-15T13:24:57;5.03;;;4.43;;
9918;SDS011;4998;51.024;13.828;2023-05-15T13:27:24;6.97;;;4.43;;
9918;SDS011;4998;51.024;13.828;2023-05-15T13:29:52;6.13;;;4.43;;
9918;SDS011;4998;51.024;13.828;2023-05-15T13:32:20;10.23;;;4.53;;
9918;SDS011;4998;51.024;13.828;2023-05-15T13:34:47;7.93;;;4.80;;
9918;SDS011;4998;51.024;13.828;2023-05-15T13:37:14;9.63;;;4.80;;
9918;SDS011;4998;51.024;13.828;2023-05-15T13:39:41;5.20;;;4.70;;
9918;SDS011;4998;51.024;13.828;2023-05-15T13:42:08;4.03;;;3.73;;
9918;SDS011;4998;51.024;13.828;2023-05-15T13:44:35;5.00;;;4.50;;
9918;SDS011;4998;51.024;13.828;2023-05-15T13:47:04;5.70;;;4.13;;
9918;SDS011;4998;51.024;13.828;2023-05-15T13:49:31;4.70;;;4.30;;
9918;SDS011;4998;51.024;13.828;2023-05-15T13:51:58;4.70;;;4.27;;
9918;SDS011;4998;51.024;13.828;2023-05-15T13:54:25;4.97;;;4.47;;
9918;SDS011;4998;51.024;13.828;2023-05-15T13:56:52;5.60;;;4.50;;
9918;SDS011;4998;51.024;13.828;2023-05-15T13:59:19;6.00;;;5.00;;
9918;SDS011;4998;51.024;13.828;2023-05-15T14:01:46;5.10;;;4.60;;
9918;SDS011;4998;51.024;13.828;2023-05-15T14:04:14;5.47;;;4.87;;
9918;SDS011;4998;51.024;13.828;2023-05-15T14:06:41;4.40;;;4.10;;
9918;SDS011;4998;51.024;13.828;2023-05-15T14:09:08;5.63;;;5.03;;
9918;SDS011;4998;51.024;13.828;2023-05-15T14:11:35;4.83;;;4.43;;
9918;SDS011;4998;51.024;13.828;2023-05-15T14:14:02;6.23;;;5.10;;
9918;SDS011;4998;51.024;13.828;2023-05-15T14:16:29;8.33;;;5.40;;
9918;SDS011;4998;51.024;13.828;2023-05-15T14:18:56;5.20;;;4.80;;
9918;SDS011;4998;51.024;13.828;2023-05-15T14:21:25;11.33;;;5.13;;
9918;SDS011;4998;51.024;13.828;2023-05-15T14:23:52;6.13;;;4.60;;
9918;SDS011;4998;51.024;13.828;2023-05-15T14:26:19;5.93;;;5.40;;
9918;SDS011;4998;51.024;13.828;2023-05-15T14:28:46;6.07;;;4.80;;
9918;SDS011;4998;51.024;13.828;2023-05-15T14:31:13;5.03;;;4.70;;
9918;SDS011;4998;51.024;13.828;2023-05-15T14:33:40;5.80;;;5.20;;
9918;SDS011;4998;51.024;13.828;2023-05-15T14:36:07;6.07;;;5.50;;
9918;SDS011;4998;51.024;13.828;2023-05-15T14:38:36;6.57;;;5.83;;
9918;SDS011;4998;51.024;13.828;2023-05-15T14:41:03;7.03;;;6.40;;
9918;SDS011;4998;51.024;13.828;2023-05-15T14:43:30;7.10;;;5.90;;
9918;SDS011;4998;51.024;13.828;2023-05-15T14:45:57;5.73;;;5.23;;
9918;SDS011;4998;51.024;13.828;2023-05-15T14:48:24;5.10;;;4.70;;
9918;SDS011;4998;51.024;13.828;2023-05-15T14:50:51;4.90;;;4.50;;
9918;SDS011;4998;51.024;13.828;2023-05-15T14:53:18;5.37;;;4.60;;
9918;SDS011;4998;51.024;13.828;2023-05-15T14:55:46;4.53;;;4.23;;
9918;SDS011;4998;51.024;13.828;2023-05-15T14:58:13;4.70;;;4.30;;
9918;SDS011;4998;51.024;13.828;2023-05-15T15:00:40;6.30;;;5.40;;
9918;SDS011;4998;51.024;13.828;2023-05-15T15:03:07;5.23;;;4.57;;
9918;SDS011;4998;51.024;13.828;2023-05-15T15:05:35;4.30;;;4.00;;
9918;SDS011;4998;51.024;13.828;2023-05-15T15:08:04;5.17;;;4.67;;
9918;SDS011;4998;51.024;13.828;2023-05-15T15:10:32;5.20;;;4.70;;
9918;SDS011;4998;51.024;13.828;2023-05-15T15:13:02;4.13;;;3.77;;